createdAt,value
2023-03-04T00:00:55.649Z,12.90
2023-03-04T00:04:03.569Z,14.00
2023-03-04T00:07:12.663Z,13.80
2023-03-04T00:10:20.898Z,13.40
2023-03-04T00:13:28.909Z,12.40
2023-03-04T00:16:36.957Z,13.90
2023-03-04T00:19:44.797Z,13.20
2023-03-04T00:22:53.229Z,12.10
2023-03-04T00:26:00.863Z,12.10
2023-03-04T00:29:08.883Z,11.30
2023-03-04T00:32:18.419Z,11.50
2023-03-04T00:35:26.784Z,12.40
2023-03-04T00:38:35.221Z,12.30
2023-03-04T00:41:43.470Z,11.40
2023-03-04T00:44:51.662Z,12.10
2023-03-04T00:47:59.590Z,12.00
2023-03-04T00:51:07.758Z,12.90
2023-03-04T00:54:15.928Z,11.00
2023-03-04T00:57:23.831Z,11.50
2023-03-04T01:00:31.816Z,11.90
2023-03-04T01:03:41.536Z,11.90
2023-03-04T01:06:49.404Z,11.40
2023-03-04T01:09:57.369Z,11.90
2023-03-04T01:13:05.499Z,11.90
2023-03-04T01:16:13.725Z,12.50
2023-03-04T01:19:22.111Z,11.50
2023-03-04T01:22:29.984Z,12.40
2023-03-04T01:25:37.954Z,11.00
2023-03-04T01:28:46.044Z,11.30
2023-03-04T01:31:54.481Z,10.90
2023-03-04T01:35:02.660Z,11.70
2023-03-04T01:38:10.553Z,11.60
2023-03-04T01:41:23.924Z,12.60
2023-03-04T01:44:32.202Z,11.70
2023-03-04T01:47:39.886Z,11.70
2023-03-04T01:50:47.735Z,11.60
2023-03-04T01:53:56.521Z,10.20
2023-03-04T01:57:08.434Z,9.80
2023-03-04T02:00:30.916Z,9.70
2023-03-04T02:03:39.274Z,10.70
2023-03-04T02:06:49.098Z,10.50
2023-03-04T02:09:57.006Z,10.00
2023-03-04T02:13:05.751Z,10.30
2023-03-04T02:16:14.485Z,10.30
2023-03-04T02:19:43.851Z,10.60
2023-03-04T02:23:02.472Z,10.30
2023-03-04T02:26:18.002Z,10.20
2023-03-04T02:29:26.361Z,10.40
2023-03-04T02:32:35.990Z,9.80
2023-03-04T02:35:43.858Z,10.30
2023-03-04T02:38:53.245Z,9.80
2023-03-04T02:42:03.033Z,9.60
2023-03-04T02:45:39.194Z,8.90
2023-03-04T02:48:46.823Z,9.60
2023-03-04T02:52:03.170Z,9.80
2023-03-04T02:55:12.682Z,9.20
2023-03-04T02:58:22.311Z,9.70
2023-03-04T03:01:34.371Z,8.90
2023-03-04T03:04:43.930Z,10.00
2023-03-04T03:07:51.837Z,9.60
2023-03-04T03:10:59.468Z,9.20
2023-03-04T03:14:07.975Z,8.10
2023-03-04T03:17:16.216Z,9.40
2023-03-04T03:20:24.316Z,8.70
2023-03-04T03:23:33.595Z,9.90
2023-03-04T03:26:41.849Z,9.30
2023-03-04T03:29:49.670Z,9.40
2023-03-04T03:32:58.114Z,9.60
2023-03-04T03:36:06.244Z,9.60
2023-03-04T03:39:15.677Z,9.60
2023-03-04T03:42:23.684Z,8.40
2023-03-04T03:45:31.749Z,9.10
2023-03-04T03:48:39.784Z,8.90
2023-03-04T03:51:47.856Z,9.10
2023-03-04T03:54:55.702Z,7.40
2023-03-04T03:58:03.523Z,9.00
2023-03-04T04:01:12.037Z,7.50
2023-03-04T04:04:20.317Z,9.30
2023-03-04T04:07:28.204Z,9.30
2023-03-04T04:10:36.264Z,9.70
2023-03-04T04:13:44.602Z,8.80
2023-03-04T04:16:52.335Z,8.50
2023-03-04T04:20:00.684Z,9.20
2023-03-04T04:23:08.612Z,8.40
2023-03-04T04:26:16.641Z,8.70
2023-03-04T04:29:25.029Z,9.00
2023-03-04T04:32:33.102Z,7.70
2023-03-04T04:35:41.665Z,8.10
2023-03-04T04:38:50.502Z,8.60
2023-03-04T04:41:58.563Z,9.10
2023-03-04T04:45:08.112Z,8.60
2023-03-04T04:48:15.917Z,7.50
2023-03-04T04:51:23.816Z,8.10
2023-03-04T04:54:31.978Z,8.40
2023-03-04T04:57:40.446Z,8.40
2023-03-04T05:00:48.497Z,9.10
2023-03-04T05:03:57.019Z,8.40
2023-03-04T05:07:04.939Z,9.00
2023-03-04T05:10:14.708Z,9.00
2023-03-04T05:13:22.956Z,8.50
2023-03-04T05:16:31.120Z,8.60
2023-03-04T05:19:39.013Z,9.40
2023-03-04T05:22:47.133Z,8.40
2023-03-04T05:25:55.331Z,8.90
2023-03-04T05:29:03.035Z,9.30
2023-03-04T05:32:11.866Z,9.40
2023-03-04T05:35:19.884Z,9.20
2023-03-04T05:38:28.249Z,10.50
2023-03-04T05:41:36.516Z,8.50
2023-03-04T05:44:44.453Z,7.90
2023-03-04T05:47:52.429Z,8.80
2023-03-04T05:51:02.402Z,9.50
2023-03-04T05:54:10.347Z,9.50
2023-03-04T05:57:18.570Z,10.00
2023-03-04T06:00:27.521Z,5.50
2023-03-04T06:03:36.628Z,9.10
2023-03-04T06:06:47.368Z,9.60
2023-03-04T06:09:55.460Z,9.80
2023-03-04T06:13:03.082Z,8.80
2023-03-04T06:16:12.616Z,10.00
2023-03-04T06:19:20.428Z,8.50
2023-03-04T06:22:29.433Z,7.40
2023-03-04T06:25:37.151Z,11.60
2023-03-04T06:28:45.572Z,12.90
2023-03-04T06:31:53.667Z,12.50
2023-03-04T06:35:03.065Z,12.40
2023-03-04T06:38:11.084Z,14.70
2023-03-04T06:41:19.669Z,13.20
2023-03-04T06:44:28.498Z,13.30
2023-03-04T06:47:36.318Z,14.80
2023-03-04T06:50:45.713Z,14.90
2023-03-04T06:53:53.584Z,13.00
2023-03-04T06:57:01.331Z,12.50
2023-03-04T07:00:12.584Z,14.40
2023-03-04T07:03:20.407Z,14.20
2023-03-04T07:06:29.948Z,14.10
2023-03-04T07:09:38.283Z,16.60
2023-03-04T07:12:46.127Z,13.80
2023-03-04T07:15:53.927Z,16.80
2023-03-04T07:19:02.595Z,12.20
2023-03-04T07:22:10.659Z,14.50
2023-03-04T07:25:19.173Z,15.00
2023-03-04T07:28:26.931Z,17.50
2023-03-04T07:31:37.049Z,17.50
2023-03-04T07:37:51.596Z,12.90
2023-03-04T07:41:02.143Z,16.80
2023-03-04T07:44:13.330Z,18.60
2023-03-04T07:47:21.142Z,17.70
2023-03-04T07:50:29.218Z,15.70
2023-03-04T07:53:38.454Z,16.40
2023-03-04T07:56:46.354Z,16.10
2023-03-04T07:59:54.278Z,17.00
2023-03-04T08:03:02.429Z,16.70
2023-03-04T08:06:14.025Z,15.10
2023-03-04T08:09:24.044Z,18.70
2023-03-04T08:12:32.033Z,18.80
2023-03-04T08:15:44.914Z,16.90
2023-03-04T08:18:55.447Z,18.10
2023-03-04T08:22:03.390Z,16.60
2023-03-04T08:25:12.799Z,16.70
2023-03-04T08:28:21.880Z,11.90
2023-03-04T08:31:30.580Z,13.30
2023-03-04T08:34:40.425Z,12.20
2023-03-04T08:37:48.700Z,14.70
2023-03-04T08:41:00.925Z,13.00
2023-03-04T08:44:10.569Z,10.40
2023-03-04T08:47:18.517Z,7.00
2023-03-04T08:50:27.663Z,9.20
2023-03-04T08:53:35.946Z,9.60
2023-03-04T08:56:45.445Z,9.80
2023-03-04T08:59:53.848Z,5.70
2023-03-04T09:03:03.955Z,9.40
2023-03-04T09:06:13.819Z,10.20
2023-03-04T09:09:22.386Z,10.60
2023-03-04T09:12:32.971Z,12.60
2023-03-04T09:15:45.064Z,13.50
2023-03-04T09:18:53.664Z,11.50
2023-03-04T09:22:02.211Z,11.30
2023-03-04T09:25:16.035Z,11.50
2023-03-04T09:28:24.478Z,11.20
2023-03-04T09:31:34.188Z,14.20
2023-03-04T09:34:42.244Z,9.90
2023-03-04T09:37:50.788Z,12.00
2023-03-04T09:41:01.661Z,14.80
2023-03-04T09:44:22.236Z,13.80
2023-03-04T09:47:32.815Z,13.20
2023-03-04T09:50:56.129Z,13.40
2023-03-04T09:54:16.179Z,14.90
2023-03-04T09:57:42.073Z,13.40
2023-03-04T10:00:56.668Z,15.70
2023-03-04T10:04:14.171Z,15.70
2023-03-04T10:07:29.634Z,15.20
2023-03-04T10:10:44.084Z,16.40
2023-03-04T10:14:04.720Z,12.80
2023-03-04T10:17:22.232Z,15.10
2023-03-04T10:20:44.799Z,16.00
2023-03-04T10:23:54.690Z,16.80
2023-03-04T10:27:12.068Z,15.10
2023-03-04T10:30:39.265Z,15.70
2023-03-04T10:33:47.634Z,16.30
2023-03-04T10:37:03.272Z,14.10
2023-03-04T10:40:27.517Z,15.60
2023-03-04T10:43:35.602Z,14.10
2023-03-04T10:46:45.699Z,15.40
2023-03-04T10:49:58.938Z,15.00
2023-03-04T10:53:18.168Z,14.20
2023-03-04T10:56:43.088Z,14.30
2023-03-04T10:59:57.482Z,12.90
2023-03-04T11:03:34.314Z,15.70
2023-03-04T11:06:44.946Z,14.30
2023-03-04T11:09:53.386Z,13.40
2023-03-04T11:13:14.512Z,13.40
2023-03-04T11:16:35.159Z,13.40
2023-03-04T11:19:47.132Z,13.50
2023-03-04T11:22:58.257Z,13.10
2023-03-04T11:26:12.129Z,11.70
2023-03-04T11:29:26.829Z,15.50
2023-03-04T11:32:43.719Z,14.20
2023-03-04T11:36:10.759Z,10.10
2023-03-04T11:39:29.224Z,13.80
2023-03-04T11:42:43.176Z,12.40
2023-03-04T11:46:13.730Z,13.90
2023-03-04T11:49:57.423Z,15.70
2023-03-04T11:53:33.353Z,14.20
2023-03-04T11:56:46.264Z,13.50
2023-03-04T12:00:15.093Z,13.90
2023-03-04T12:04:12.372Z,13.50
2023-03-04T12:07:48.772Z,11.90
2023-03-04T12:11:08.374Z,13.00
2023-03-04T12:14:31.991Z,13.70
2023-03-04T12:18:02.577Z,14.70
2023-03-04T12:21:41.521Z,13.00
2023-03-04T12:25:20.410Z,11.00
2023-03-04T12:28:52.483Z,13.00
2023-03-04T12:32:11.760Z,12.40
2023-03-04T12:35:38.857Z,12.20
2023-03-04T12:39:10.135Z,13.40
2023-03-04T12:42:35.567Z,13.00
2023-03-04T12:45:56.060Z,13.10
2023-03-04T12:49:49.571Z,11.90
2023-03-04T12:53:15.068Z,12.80
2023-03-04T12:56:33.373Z,11.50
2023-03-04T12:59:49.573Z,10.60
2023-03-04T13:03:13.445Z,10.40
2023-03-04T13:06:36.314Z,9.80
2023-03-04T13:09:54.705Z,9.20
2023-03-04T13:13:04.197Z,9.30
2023-03-04T13:16:42.133Z,9.80
2023-03-04T13:20:13.224Z,9.20
2023-03-04T13:23:32.817Z,8.90
2023-03-04T13:26:41.211Z,9.00
2023-03-04T13:29:49.659Z,7.80
2023-03-04T13:32:58.548Z,7.50
2023-03-04T13:36:26.945Z,7.80
2023-03-04T13:39:39.674Z,7.80
2023-03-04T13:42:49.099Z,7.20
2023-03-04T13:45:57.577Z,6.60
2023-03-04T13:49:09.950Z,7.10
2023-03-04T13:52:44.498Z,7.30
2023-03-04T13:56:37.553Z,7.70
2023-03-04T13:59:49.530Z,7.60
2023-03-04T14:02:57.567Z,7.40
2023-03-04T14:06:23.019Z,8.20
2023-03-04T14:09:33.632Z,7.40
2023-03-04T14:12:46.168Z,8.40
2023-03-04T14:16:01.787Z,8.30
2023-03-04T14:19:19.918Z,7.20
2023-03-04T14:22:31.090Z,8.30
2023-03-04T14:25:40.282Z,7.90
2023-03-04T14:28:52.014Z,8.40
2023-03-04T14:32:02.837Z,8.10
2023-03-04T14:35:25.038Z,7.70
2023-03-04T14:38:37.238Z,8.20
2023-03-04T14:41:47.470Z,7.00
2023-03-04T14:44:59.994Z,7.70
2023-03-04T14:48:10.758Z,7.70
2023-03-04T14:55:11.108Z,8.50
2023-03-04T14:58:28.073Z,8.70
2023-03-04T15:01:39.021Z,9.60
2023-03-04T15:04:47.835Z,9.20
2023-03-04T15:08:03.594Z,10.10
2023-03-04T15:11:23.311Z,8.90
2023-03-04T15:14:50.414Z,10.20
2023-03-04T15:18:05.357Z,10.30
2023-03-04T15:21:40.386Z,8.70
2023-03-04T15:24:49.817Z,10.70
2023-03-04T15:27:58.818Z,9.50
2023-03-04T15:31:16.366Z,10.30
2023-03-04T15:34:25.241Z,10.90
2023-03-04T15:37:34.172Z,10.40
2023-03-04T15:40:44.385Z,9.70
2023-03-04T15:43:52.583Z,12.10
2023-03-04T15:47:00.877Z,11.40
2023-03-04T15:50:10.985Z,10.50
2023-03-04T15:53:26.938Z,11.70
2023-03-04T15:56:36.782Z,12.20
2023-03-04T15:59:44.903Z,11.00
2023-03-04T16:02:53.717Z,11.10
2023-03-04T16:06:02.521Z,11.10
2023-03-04T16:09:14.851Z,10.00
2023-03-04T16:12:23.575Z,9.20
2023-03-04T16:15:33.771Z,9.90
2023-03-04T16:18:42.406Z,10.70
2023-03-04T16:21:50.904Z,10.50
2023-03-04T16:24:58.822Z,12.40
2023-03-04T16:28:07.881Z,11.40
2023-03-04T16:31:17.706Z,11.90
2023-03-04T16:37:34.872Z,11.80
2023-03-04T16:40:43.776Z,12.30
2023-03-04T16:43:51.610Z,10.00
2023-03-04T16:46:59.507Z,10.30
2023-03-04T16:50:08.812Z,10.40
2023-03-04T16:53:31.840Z,11.70
2023-03-04T16:56:39.739Z,10.00
2023-03-04T16:59:48.086Z,10.10
2023-03-04T17:03:00.413Z,10.30
2023-03-04T17:06:11.141Z,10.10
2023-03-04T17:09:19.084Z,11.10
2023-03-04T17:12:27.163Z,9.60
2023-03-04T17:15:35.332Z,10.60
2023-03-04T17:18:44.381Z,9.70
2023-03-04T17:21:52.671Z,10.00
2023-03-04T17:25:02.863Z,10.10
2023-03-04T17:28:11.194Z,10.10
2023-03-04T17:31:21.625Z,10.60
2023-03-04T17:34:29.485Z,10.80
2023-03-04T17:37:37.445Z,9.60
2023-03-04T17:40:46.063Z,11.20
2023-03-04T17:43:57.092Z,11.50
2023-03-04T17:47:05.769Z,11.90
2023-03-04T17:50:16.025Z,12.40
2023-03-04T17:53:24.791Z,11.90
2023-03-04T17:56:33.468Z,12.10
2023-03-04T17:59:42.014Z,11.50
2023-03-04T18:02:50.183Z,10.40
2023-03-04T18:05:58.633Z,11.20
2023-03-04T18:09:06.999Z,10.00
2023-03-04T18:12:15.789Z,11.10
2023-03-04T18:15:24.113Z,11.40
2023-03-04T18:18:33.232Z,12.10
2023-03-04T18:21:41.122Z,12.60
2023-03-04T18:24:49.159Z,9.60
2023-03-04T18:27:57.070Z,10.40
2023-03-04T18:31:05.339Z,7.40
2023-03-04T18:34:14.664Z,8.60
2023-03-04T18:37:23.037Z,9.60
2023-03-04T18:40:31.814Z,8.50
2023-03-04T18:43:40.446Z,8.10
2023-03-04T18:46:52.230Z,8.90
2023-03-04T18:50:00.263Z,9.00
2023-03-04T18:53:08.654Z,7.60
2023-03-04T18:56:22.544Z,8.60
2023-03-04T18:59:37.114Z,7.80
2023-03-04T19:02:49.014Z,6.10
2023-03-04T19:05:57.287Z,6.20
2023-03-04T19:09:06.915Z,5.70
2023-03-04T19:12:14.799Z,5.10
2023-03-04T19:15:24.040Z,4.50
2023-03-04T19:18:32.651Z,5.10
2023-03-04T19:21:43.344Z,6.00
2023-03-04T19:24:52.880Z,5.00
2023-03-04T19:28:01.339Z,5.60
2023-03-04T19:31:14.019Z,7.00
2023-03-04T19:34:21.825Z,6.20
2023-03-04T19:37:32.467Z,5.00
2023-03-04T19:40:47.004Z,5.50
2023-03-04T19:43:55.142Z,6.10
2023-03-04T19:47:03.895Z,5.80
2023-03-04T19:50:16.349Z,8.30
2023-03-04T19:53:24.385Z,6.80
2023-03-04T19:56:34.700Z,7.00
2023-03-04T19:59:42.597Z,6.90
2023-03-04T20:02:51.669Z,8.40
2023-03-04T20:06:10.270Z,8.50
2023-03-04T20:09:19.579Z,6.90
2023-03-04T20:12:31.340Z,8.60
2023-03-04T20:15:42.958Z,7.50
2023-03-04T20:18:50.871Z,7.30
2023-03-04T20:21:59.224Z,4.90
2023-03-04T20:25:08.369Z,7.40
2023-03-04T20:28:16.484Z,5.90
2023-03-04T20:31:28.502Z,5.60
2023-03-04T20:34:37.331Z,5.30
2023-03-04T20:37:45.401Z,4.80
2023-03-04T20:40:53.722Z,6.30
2023-03-04T20:44:01.968Z,5.40
2023-03-04T20:47:10.600Z,4.80
2023-03-04T20:50:19.154Z,5.20
2023-03-04T20:53:26.894Z,5.60
2023-03-04T20:56:35.810Z,5.10
2023-03-04T20:59:45.355Z,4.20
2023-03-04T21:02:53.285Z,5.60
2023-03-04T21:06:06.357Z,4.90
2023-03-04T21:09:17.849Z,5.20
2023-03-04T21:12:26.055Z,4.00
2023-03-04T21:15:34.002Z,6.10
2023-03-04T21:18:42.525Z,4.40
2023-03-04T21:21:52.772Z,5.50
2023-03-04T21:25:00.837Z,5.60
2023-03-04T21:28:08.933Z,4.20
2023-03-04T21:31:23.788Z,5.80
2023-03-04T21:34:37.965Z,4.40
2023-03-04T21:37:45.816Z,5.20
2023-03-04T21:40:53.729Z,5.70
2023-03-04T21:44:01.961Z,4.90
2023-03-04T21:47:09.947Z,5.20
2023-03-04T21:50:18.609Z,5.70
2023-03-04T21:53:26.362Z,4.90
2023-03-04T21:56:34.805Z,5.80
2023-03-04T21:59:43.840Z,3.50
2023-03-04T22:02:51.859Z,5.10
2023-03-04T22:05:59.621Z,4.40
2023-03-04T22:09:08.465Z,4.10
2023-03-04T22:12:18.295Z,5.70
2023-03-04T22:15:27.524Z,6.10
2023-03-04T22:18:36.398Z,5.60
2023-03-04T22:21:44.229Z,4.80
2023-03-04T22:24:52.624Z,5.70
2023-03-04T22:28:01.016Z,4.60
2023-03-04T22:31:19.413Z,5.70
2023-03-04T22:34:27.472Z,4.30
2023-03-04T22:37:35.844Z,6.10
2023-03-04T22:40:43.813Z,5.20
2023-03-04T22:43:52.440Z,6.40
2023-03-04T22:47:00.572Z,4.90
2023-03-04T22:50:11.859Z,5.40
2023-03-04T22:53:19.608Z,6.20
2023-03-04T22:56:28.285Z,5.80
2023-03-04T22:59:36.517Z,6.50
2023-03-04T23:02:44.743Z,6.90
2023-03-04T23:06:00.668Z,6.60
2023-03-04T23:09:08.796Z,7.70
2023-03-04T23:12:17.089Z,7.00
2023-03-04T23:15:26.220Z,5.60
2023-03-04T23:18:33.962Z,7.60
2023-03-04T23:21:42.680Z,6.90
2023-03-04T23:24:50.361Z,7.60
2023-03-04T23:27:58.638Z,7.40
2023-03-04T23:31:07.074Z,7.40
2023-03-04T23:34:15.208Z,7.00
2023-03-04T23:37:24.063Z,7.30
2023-03-04T23:40:31.850Z,6.80
2023-03-04T23:43:39.705Z,8.00
2023-03-04T23:46:47.840Z,7.00
2023-03-04T23:49:55.964Z,7.10
2023-03-04T23:53:04.072Z,7.90
2023-03-04T23:56:15.956Z,6.90
2023-03-04T23:59:23.607Z,6.80
